Terminal Aerodrome Forecast
Issued by NWS Wilmington, OH

Home | Current Version | Previous Version | Text Only | Print | Product List | Glossary On
Versions: 1 2 3 4 5 6 7 8 9 10 11 12 13 14 15 16 17 18 19 20 21
000
FTUS41 KILN 211800 AAA
TAFDAY
TAF AMD
KDAY 211832Z 2119/2218 34012G20KT P6SM VCSH OVC025
      TEMPO 2119/2122 OVC015
     FM212200 35008KT P6SM OVC025
     FM221500 36010KT P6SM SCT035=

USA.gov is the U.S. government's official web portal to all federal, state and local government web resources and services.